Time;durP1;ratioP1;P1;durP2;ratioP2;P2;SDS_P1;SDS_P2;PMS_P1;PMS_P2;Temp;Humidity;BMP_temperature;BMP_pressure;BME280_temperature;BME280_humidity;BME280_pressure;Samples;Min_cycle;Max_cycle;Signal;HPM_P1;HPM_P2
2023/04/18 00:00:12;;;;;;;38.03;22.90;;;;;;;;;;5111214;28;20390;-81
2023/04/18 00:02:40;;;;;;;35.77;21.93;;;;;;;;;;5112333;28;20305;-80
2023/04/18 00:05:07;;;;;;;37.60;23.03;;;;;;;;;;5111640;28;20193;-80
2023/04/18 00:07:35;;;;;;;35.93;21.90;;;;;;;;;;5112016;28;20623;-80
2023/04/18 00:10:02;;;;;;;35.73;22.80;;;;;;;;;;5111367;28;20196;-79
2023/04/18 00:12:30;;;;;;;36.47;22.70;;;;;;;;;;5111935;28;20566;-80
2023/04/18 00:14:59;;;;;;;35.30;22.27;;;;;;;;;;5091704;28;20202;-79
2023/04/18 00:17:27;;;;;;;37.63;22.97;;;;;;;;;;5091364;28;20597;-80
2023/04/18 00:19:57;;;;;;;34.57;22.03;;;;;;;;;;5091192;28;20301;-80
2023/04/18 00:22:24;;;;;;;38.07;22.70;;;;;;;;;;5091650;28;20225;-80
2023/04/18 00:24:52;;;;;;;35.17;22.90;;;;;;;;;;5091382;28;20292;-80
2023/04/18 00:27:19;;;;;;;36.70;22.97;;;;;;;;;;5090849;28;20297;-79
2023/04/18 00:29:46;;;;;;;37.87;23.47;;;;;;;;;;5091647;28;20638;-80
2023/04/18 00:32:14;;;;;;;36.70;23.13;;;;;;;;;;5091112;28;20202;-79
2023/04/18 00:34:42;;;;;;;36.87;22.50;;;;;;;;;;5090380;28;20198;-80
2023/04/18 00:37:10;;;;;;;40.77;24.33;;;;;;;;;;5091454;28;20292;-80
2023/04/18 00:39:37;;;;;;;36.40;23.63;;;;;;;;;;5094100;28;20851;-79
2023/04/18 00:42:04;;;;;;;36.27;23.30;;;;;;;;;;5111085;28;20251;-80
2023/04/18 00:44:31;;;;;;;35.97;23.67;;;;;;;;;;5111611;28;20284;-79
2023/04/18 00:46:59;;;;;;;36.53;23.47;;;;;;;;;;5111287;28;20564;-80
2023/04/18 00:49:26;;;;;;;37.27;23.87;;;;;;;;;;5114848;28;20232;-80
2023/04/18 00:51:55;;;;;;;38.57;22.73;;;;;;;;;;5115841;28;20224;-79
2023/04/18 00:54:22;;;;;;;39.90;23.77;;;;;;;;;;5115288;28;20292;-79
2023/04/18 00:56:49;;;;;;;39.50;24.40;;;;;;;;;;5115328;28;20200;-79
2023/04/18 00:59:17;;;;;;;39.27;23.60;;;;;;;;;;5115535;28;20246;-79
2023/04/18 01:01:44;;;;;;;39.40;24.07;;;;;;;;;;5115201;28;20683;-79
2023/04/18 01:04:11;;;;;;;41.50;24.80;;;;;;;;;;5115318;28;20265;-80
2023/04/18 01:06:38;;;;;;;39.60;24.27;;;;;;;;;;5115604;28;20280;-80
2023/04/18 01:09:07;;;;;;;37.30;23.93;;;;;;;;;;5114886;28;20655;-79
2023/04/18 01:11:34;;;;;;;40.93;25.43;;;;;;;;;;5115365;28;20227;-80
2023/04/18 01:14:02;;;;;;;43.00;26.17;;;;;;;;;;5115021;28;20647;-79
2023/04/18 01:16:31;;;;;;;44.37;26.93;;;;;;;;;;5115331;28;20205;-79
2023/04/18 01:18:58;;;;;;;43.07;27.00;;;;;;;;;;5115230;28;20582;-80
2023/04/18 01:21:29;;;;;;;45.43;27.73;;;;;;;;;;5115127;28;20228;-80
2023/04/18 01:24:00;;;;;;;45.13;26.87;;;;;;;;;;5114747;28;20198;-80
2023/04/18 01:26:29;;;;;;;45.30;26.87;;;;;;;;;;5115261;27;20201;-79
2023/04/18 01:28:56;;;;;;;47.40;28.17;;;;;;;;;;5115232;28;20304;-79
2023/04/18 01:31:23;;;;;;;48.53;28.83;;;;;;;;;;5114531;28;20209;-80
2023/04/18 01:33:50;;;;;;;47.07;29.20;;;;;;;;;;5114753;28;20296;-79
2023/04/18 01:36:18;;;;;;;50.37;31.00;;;;;;;;;;5115167;28;20294;-79
2023/04/18 01:38:45;;;;;;;52.20;30.57;;;;;;;;;;5114364;28;20278;-79
2023/04/18 01:41:12;;;;;;;49.37;29.63;;;;;;;;;;5113707;28;20247;-79
2023/04/18 01:43:40;;;;;;;55.30;31.43;;;;;;;;;;5113594;28;20727;-79
2023/04/18 01:46:08;;;;;;;53.97;31.03;;;;;;;;;;5113384;28;20227;-80
2023/04/18 01:48:35;;;;;;;56.77;31.67;;;;;;;;;;5113498;28;20243;-79
2023/04/18 01:51:02;;;;;;;54.13;31.60;;;;;;;;;;5113301;28;20228;-79
2023/04/18 01:53:29;;;;;;;55.10;31.50;;;;;;;;;;5113471;28;20224;-79
2023/04/18 01:55:57;;;;;;;57.23;32.23;;;;;;;;;;5113036;28;20229;-80
2023/04/18 01:58:25;;;;;;;58.33;32.57;;;;;;;;;;5113118;28;20194;-79
2023/04/18 02:00:57;;;;;;;55.83;32.60;;;;;;;;;;5113287;28;20288;-79
2023/04/18 02:03:24;;;;;;;58.67;33.27;;;;;;;;;;5113372;28;20201;-78
2023/04/18 02:05:52;;;;;;;59.63;33.67;;;;;;;;;;5113259;28;20209;-79
2023/04/18 02:08:19;;;;;;;60.40;33.53;;;;;;;;;;5112551;28;20315;-80
2023/04/18 02:10:46;;;;;;;63.73;34.83;;;;;;;;;;5112874;28;20287;-79
2023/04/18 02:13:14;;;;;;;63.87;33.50;;;;;;;;;;5112665;28;20656;-78
2023/04/18 02:15:41;;;;;;;64.63;34.70;;;;;;;;;;5113113;28;20200;-79
2023/04/18 02:18:10;;;;;;;60.03;34.00;;;;;;;;;;5112987;28;20228;-78
2023/04/18 02:20:38;;;;;;;65.47;33.73;;;;;;;;;;5112733;28;20195;-79
2023/04/18 02:23:06;;;;;;;61.77;34.63;;;;;;;;;;5112507;28;20256;-79
2023/04/18 02:25:33;;;;;;;64.40;35.70;;;;;;;;;;5112750;28;20197;-79
2023/04/18 02:28:00;;;;;;;70.13;36.10;;;;;;;;;;5113260;28;20205;-79
2023/04/18 02:30:28;;;;;;;68.20;35.40;;;;;;;;;;5112818;28;20212;-79
2023/04/18 02:32:56;;;;;;;64.00;36.33;;;;;;;;;;5112717;28;20290;-80
2023/04/18 02:35:25;;;;;;;69.27;36.47;;;;;;;;;;5112284;28;20198;-80
2023/04/18 02:37:52;;;;;;;66.17;35.77;;;;;;;;;;5112967;28;20280;-79
2023/04/18 02:40:20;;;;;;;70.97;37.70;;;;;;;;;;5112556;28;20283;-79
2023/04/18 02:42:47;;;;;;;68.40;37.13;;;;;;;;;;5066311;28;1309194;-80
2023/04/18 02:45:14;;;;;;;69.30;37.53;;;;;;;;;;5113485;28;20231;-80
2023/04/18 02:47:41;;;;;;;70.53;39.53;;;;;;;;;;5113867;28;20238;-79
2023/04/18 02:50:09;;;;;;;76.73;38.97;;;;;;;;;;5112707;28;20667;-80
2023/04/18 02:52:37;;;;;;;77.17;41.23;;;;;;;;;;5113129;28;20205;-80
2023/04/18 02:55:05;;;;;;;74.27;40.63;;;;;;;;;;5113496;28;20327;-80
2023/04/18 02:57:32;;;;;;;74.73;39.00;;;;;;;;;;5113025;28;20225;-79
2023/04/18 02:59:59;;;;;;;71.90;38.77;;;;;;;;;;5113378;28;20284;-80
2023/04/18 03:02:26;;;;;;;74.40;38.97;;;;;;;;;;5113425;28;20320;-78
2023/04/18 03:04:55;;;;;;;73.83;38.57;;;;;;;;;;5112749;28;20232;-78
2023/04/18 03:07:22;;;;;;;76.27;39.30;;;;;;;;;;5113207;28;20202;-79
2023/04/18 03:09:50;;;;;;;74.40;38.60;;;;;;;;;;5113197;28;20284;-79
2023/04/18 03:12:18;;;;;;;69.23;38.80;;;;;;;;;;5112251;28;20197;-79
2023/04/18 03:14:45;;;;;;;71.43;39.47;;;;;;;;;;5113022;28;20292;-79
2023/04/18 03:17:12;;;;;;;80.47;40.03;;;;;;;;;;5113125;28;20228;-78
2023/04/18 03:19:39;;;;;;;74.97;39.83;;;;;;;;;;5112391;28;20198;-79
2023/04/18 03:22:06;;;;;;;72.43;39.43;;;;;;;;;;5112210;28;20318;-78
2023/04/18 03:24:33;;;;;;;68.93;40.00;;;;;;;;;;5113083;28;20291;-79
2023/04/18 03:27:02;;;;;;;76.80;42.77;;;;;;;;;;5112797;28;20196;-77
2023/04/18 03:29:29;;;;;;;79.13;40.87;;;;;;;;;;5112158;28;20294;-79
2023/04/18 03:31:57;;;;;;;80.33;41.83;;;;;;;;;;5112693;27;20253;-79
2023/04/18 03:34:24;;;;;;;76.30;41.63;;;;;;;;;;5111991;28;20300;-78
2023/04/18 03:36:51;;;;;;;76.67;40.07;;;;;;;;;;5112343;28;20224;-78
2023/04/18 03:39:18;;;;;;;75.73;40.43;;;;;;;;;;5112886;28;20227;-78
2023/04/18 03:41:45;;;;;;;76.03;41.47;;;;;;;;;;5112076;28;20324;-78
2023/04/18 03:44:14;;;;;;;72.77;40.07;;;;;;;;;;5112292;28;20300;-79
2023/04/18 03:46:41;;;;;;;73.27;40.73;;;;;;;;;;5112276;28;20194;-79
2023/04/18 03:49:08;;;;;;;73.60;40.53;;;;;;;;;;5111976;28;20189;-79
2023/04/18 03:51:42;;;;;;;70.80;39.80;;;;;;;;;;5112237;28;20299;-78
2023/04/18 03:54:09;;;;;;;70.17;40.13;;;;;;;;;;5112440;28;20217;-78
2023/04/18 03:56:36;;;;;;;73.97;40.47;;;;;;;;;;5112216;28;20191;-77
2023/04/18 03:59:04;;;;;;;69.97;39.37;;;;;;;;;;5111857;28;20195;-79
2023/04/18 04:01:32;;;;;;;73.03;40.93;;;;;;;;;;5111979;28;20190;-79
2023/04/18 04:04:00;;;;;;;73.53;40.00;;;;;;;;;;5111371;28;20227;-78
2023/04/18 04:06:27;;;;;;;77.67;41.13;;;;;;;;;;5112250;28;20192;-78
2023/04/18 04:08:54;;;;;;;72.50;39.40;;;;;;;;;;5111854;28;20625;-78
2023/04/18 04:11:22;;;;;;;78.97;41.73;;;;;;;;;;5111746;28;20249;-79
2023/04/18 04:13:49;;;;;;;76.67;41.47;;;;;;;;;;5112322;28;20230;-78
2023/04/18 04:16:16;;;;;;;76.33;41.63;;;;;;;;;;5111842;28;20279;-78
2023/04/18 04:18:45;;;;;;;72.23;40.27;;;;;;;;;;5111161;28;20292;-79
2023/04/18 04:21:12;;;;;;;72.50;39.93;;;;;;;;;;5111479;28;20216;-78
2023/04/18 04:23:41;;;;;;;74.73;41.97;;;;;;;;;;5111591;28;20315;-78
2023/04/18 04:26:08;;;;;;;77.57;42.27;;;;;;;;;;5111965;28;20613;-78
2023/04/18 04:28:35;;;;;;;79.63;40.57;;;;;;;;;;5111630;28;20279;-79
2023/04/18 04:31:05;;;;;;;76.63;41.47;;;;;;;;;;5111491;28;20287;-77
2023/04/18 04:33:33;;;;;;;79.60;42.37;;;;;;;;;;5111501;28;20659;-78
2023/04/18 04:36:01;;;;;;;78.67;42.60;;;;;;;;;;5111493;28;20676;-78
2023/04/18 04:38:29;;;;;;;79.17;42.93;;;;;;;;;;5111908;28;20254;-78
2023/04/18 04:40:57;;;;;;;85.57;44.53;;;;;;;;;;5111001;28;20286;-79
2023/04/18 04:43:24;;;;;;;78.00;43.13;;;;;;;;;;5111448;28;20225;-79
2023/04/18 04:45:52;;;;;;;83.13;43.67;;;;;;;;;;5111458;28;20204;-78
2023/04/18 04:48:20;;;;;;;81.83;42.93;;;;;;;;;;5110876;28;20564;-79
2023/04/18 04:50:52;;;;;;;79.03;42.77;;;;;;;;;;5111886;28;20204;-78
2023/04/18 04:53:20;;;;;;;74.17;42.53;;;;;;;;;;5111444;28;20203;-79
2023/04/18 04:55:48;;;;;;;86.87;45.03;;;;;;;;;;5111754;28;20631;-78
2023/04/18 04:58:15;;;;;;;82.70;43.27;;;;;;;;;;5110995;28;20233;-78
2023/04/18 05:00:42;;;;;;;80.97;42.37;;;;;;;;;;5110453;28;20288;-78
2023/04/18 05:03:10;;;;;;;84.53;42.87;;;;;;;;;;5111785;28;20312;-79
2023/04/18 05:05:37;;;;;;;79.67;44.03;;;;;;;;;;5111159;28;20204;-77
2023/04/18 05:08:05;;;;;;;80.33;42.83;;;;;;;;;;5110956;28;20290;-78
2023/04/18 05:10:35;;;;;;;85.40;42.27;;;;;;;;;;5111512;28;20288;-79
2023/04/18 05:13:03;;;;;;;84.57;43.97;;;;;;;;;;5111029;28;20199;-78
2023/04/18 05:15:30;;;;;;;81.17;43.63;;;;;;;;;;5110771;28;20200;-79
2023/04/18 05:17:57;;;;;;;83.90;43.50;;;;;;;;;;5111023;28;20208;-78
2023/04/18 05:20:24;;;;;;;87.03;43.87;;;;;;;;;;5111488;28;20227;-79
2023/04/18 05:22:52;;;;;;;82.53;44.33;;;;;;;;;;5111093;28;20229;-77
2023/04/18 05:25:19;;;;;;;88.87;44.80;;;;;;;;;;5108654;28;20193;-78
2023/04/18 05:27:48;;;;;;;85.93;46.57;;;;;;;;;;5111041;28;20198;-78
2023/04/18 05:30:15;;;;;;;86.30;45.17;;;;;;;;;;5110346;28;20759;-78
2023/04/18 05:32:42;;;;;;;81.40;44.13;;;;;;;;;;5103270;28;20232;-78
2023/04/18 05:35:10;;;;;;;87.10;45.37;;;;;;;;;;5094665;28;20293;-79
2023/04/18 05:37:37;;;;;;;88.40;46.43;;;;;;;;;;5094821;28;20710;-78
2023/04/18 05:40:05;;;;;;;84.30;45.20;;;;;;;;;;5094005;28;20231;-79
2023/04/18 05:42:32;;;;;;;84.53;46.67;;;;;;;;;;5103158;28;20650;-79
2023/04/18 05:45:01;;;;;;;78.50;46.40;;;;;;;;;;5095675;28;20233;-79
2023/04/18 05:47:29;;;;;;;82.00;45.87;;;;;;;;;;5094648;28;20201;-77
2023/04/18 05:49:56;;;;;;;80.17;45.87;;;;;;;;;;5093689;28;20284;-78
2023/04/18 05:52:24;;;;;;;86.97;46.27;;;;;;;;;;5094135;28;20209;-78
2023/04/18 05:54:52;;;;;;;88.87;46.73;;;;;;;;;;5094063;28;20201;-78
2023/04/18 05:57:19;;;;;;;82.50;47.30;;;;;;;;;;5093631;28;20236;-78
2023/04/18 05:59:46;;;;;;;76.57;45.17;;;;;;;;;;5094008;28;20247;-77
2023/04/18 06:02:15;;;;;;;78.43;45.83;;;;;;;;;;5093880;28;20559;-77
2023/04/18 06:04:42;;;;;;;83.27;46.10;;;;;;;;;;5105639;28;20209;-78
2023/04/18 06:07:09;;;;;;;75.97;46.03;;;;;;;;;;5102873;28;20247;-79
2023/04/18 06:09:37;;;;;;;75.73;46.07;;;;;;;;;;5102906;28;20257;-77
2023/04/18 06:12:04;;;;;;;73.00;43.37;;;;;;;;;;5114092;28;20197;-77
2023/04/18 06:14:31;;;;;;;72.67;44.70;;;;;;;;;;5113518;27;20229;-77
2023/04/18 06:16:59;;;;;;;74.87;44.87;;;;;;;;;;5114041;28;20645;-78
2023/04/18 06:19:27;;;;;;;76.07;45.33;;;;;;;;;;5113747;28;20201;-78
2023/04/18 06:21:54;;;;;;;74.10;44.23;;;;;;;;;;5113504;28;20631;-78
2023/04/18 06:24:21;;;;;;;75.53;45.20;;;;;;;;;;5111227;28;20462;-78
2023/04/18 06:26:49;;;;;;;72.73;44.73;;;;;;;;;;5113600;27;20198;-78
2023/04/18 06:29:16;;;;;;;77.70;46.43;;;;;;;;;;5112746;28;20292;-76
2023/04/18 06:31:47;;;;;;;73.47;45.73;;;;;;;;;;5113401;28;20258;-77
2023/04/18 06:34:14;;;;;;;72.87;44.80;;;;;;;;;;5113556;28;20747;-76
2023/04/18 06:36:42;;;;;;;70.07;44.80;;;;;;;;;;5113433;28;20228;-78
2023/04/18 06:39:10;;;;;;;68.97;43.37;;;;;;;;;;5112529;28;20205;-77
2023/04/18 06:41:37;;;;;;;71.47;45.07;;;;;;;;;;5113059;28;20677;-77
2023/04/18 06:44:04;;;;;;;71.90;43.40;;;;;;;;;;5112466;28;20278;-77
2023/04/18 06:46:31;;;;;;;71.47;43.37;;;;;;;;;;5110838;28;20254;-77
2023/04/18 06:48:58;;;;;;;68.97;44.20;;;;;;;;;;5113061;28;20297;-78
2023/04/18 06:51:26;;;;;;;64.00;43.23;;;;;;;;;;5113122;28;20278;-78
2023/04/18 06:53:54;;;;;;;63.10;41.87;;;;;;;;;;5113651;28;20361;-78
2023/04/18 06:56:22;;;;;;;61.10;41.73;;;;;;;;;;5112671;28;20278;-77
2023/04/18 06:58:51;;;;;;;60.00;41.07;;;;;;;;;;5112566;27;20293;-76
2023/04/18 07:01:18;;;;;;;60.53;41.43;;;;;;;;;;5112732;28;20198;-78
2023/04/18 07:03:46;;;;;;;60.97;40.27;;;;;;;;;;5112650;28;20855;-77
2023/04/18 07:06:13;;;;;;;60.63;41.23;;;;;;;;;;5112795;28;20799;-78
2023/04/18 07:08:40;;;;;;;52.67;37.93;;;;;;;;;;5112437;28;20200;-79
2023/04/18 07:11:09;;;;;;;51.60;37.67;;;;;;;;;;5112485;28;20194;-78
2023/04/18 07:13:36;;;;;;;52.63;38.93;;;;;;;;;;5112462;28;21059;-78
2023/04/18 07:16:03;;;;;;;50.70;38.30;;;;;;;;;;5112720;28;20221;-77
2023/04/18 07:18:31;;;;;;;49.23;36.93;;;;;;;;;;5112992;28;20293;-78
2023/04/18 07:20:58;;;;;;;47.03;35.93;;;;;;;;;;5112422;28;20280;-78
2023/04/18 07:23:25;;;;;;;48.57;36.27;;;;;;;;;;5112329;28;20324;-78
2023/04/18 07:25:52;;;;;;;47.97;35.93;;;;;;;;;;5112517;28;20232;-79
2023/04/18 07:28:21;;;;;;;50.23;36.40;;;;;;;;;;5112294;28;20232;-79
2023/04/18 07:30:48;;;;;;;47.57;36.10;;;;;;;;;;5112597;28;20273;-79
2023/04/18 07:33:16;;;;;;;42.57;35.57;;;;;;;;;;5112228;28;20665;-79
2023/04/18 07:35:44;;;;;;;42.23;33.17;;;;;;;;;;5113028;28;20229;-79
2023/04/18 07:38:12;;;;;;;40.92;33.53;;;;;;;;;;5112051;28;20572;-79
2023/04/18 07:40:39;;;;;;;43.65;34.05;;;;;;;;;;5111324;28;20194;-79
2023/04/18 07:43:06;;;;;;;39.58;33.45;;;;;;;;;;5112003;28;20229;-80
2023/04/18 07:45:37;;;;;;;39.35;33.35;;;;;;;;;;5108990;28;20201;-80
2023/04/18 07:48:04;;;;;;;41.38;32.88;;;;;;;;;;5108583;28;20204;-79
2023/04/18 07:50:31;;;;;;;38.50;32.85;;;;;;;;;;5111982;28;20228;-79
2023/04/18 07:52:58;;;;;;;40.72;33.13;;;;;;;;;;5112129;28;20244;-79
2023/04/18 07:55:26;;;;;;;39.03;31.42;;;;;;;;;;5111054;28;20200;-79
2023/04/18 07:57:53;;;;;;;39.40;34.03;;;;;;;;;;5109500;28;20228;-79
2023/04/18 08:00:20;;;;;;;39.95;33.55;;;;;;;;;;5112140;28;20233;-81
2023/04/18 08:02:49;;;;;;;41.58;34.08;;;;;;;;;;5111935;28;20300;-80
2023/04/18 08:05:16;;;;;;;40.13;33.15;;;;;;;;;;5111777;28;20229;-80
2023/04/18 08:07:43;;;;;;;40.88;33.28;;;;;;;;;;5111848;28;20202;-81
2023/04/18 08:10:11;;;;;;;39.58;32.22;;;;;;;;;;5110800;28;20263;-80
2023/04/18 08:12:38;;;;;;;38.35;33.35;;;;;;;;;;5109510;28;20731;-82
2023/04/18 08:15:06;;;;;;;39.05;32.22;;;;;;;;;;5111146;28;20619;-80
2023/04/18 08:17:33;;;;;;;38.83;31.60;;;;;;;;;;5111695;28;20232;-80
2023/04/18 08:20:05;;;;;;;38.28;31.45;;;;;;;;;;5111566;28;20198;-80
2023/04/18 08:22:33;;;;;;;38.35;31.83;;;;;;;;;;5111637;28;20234;-81
2023/04/18 08:25:00;;;;;;;36.97;30.85;;;;;;;;;;5110712;28;20260;-81
2023/04/18 08:27:28;;;;;;;37.70;32.35;;;;;;;;;;5110845;28;20202;-81
2023/04/18 08:29:55;;;;;;;36.70;30.58;;;;;;;;;;5105228;28;20197;-80
2023/04/18 08:32:23;;;;;;;36.60;30.17;;;;;;;;;;5109020;28;20222;-81
2023/04/18 08:34:50;;;;;;;37.33;30.77;;;;;;;;;;5110472;28;20283;-82
2023/04/18 08:37:19;;;;;;;39.22;31.20;;;;;;;;;;5107974;28;20642;-82
2023/04/18 08:39:46;;;;;;;37.22;30.63;;;;;;;;;;5110223;28;20237;-82
2023/04/18 08:42:17;;;;;;;35.67;30.35;;;;;;;;;;5111067;28;20229;-82
2023/04/18 08:44:45;;;;;;;37.83;30.15;;;;;;;;;;5111069;28;20225;-81
2023/04/18 08:47:12;;;;;;;34.55;30.02;;;;;;;;;;5111825;28;20277;-81
2023/04/18 08:49:40;;;;;;;38.50;30.35;;;;;;;;;;5106990;28;20232;-82
2023/04/18 08:52:11;;;;;;;40.47;29.95;;;;;;;;;;5111145;28;20217;-82
2023/04/18 08:54:41;;;;;;;35.78;28.95;;;;;;;;;;5110715;28;20198;-81
2023/04/18 08:57:11;;;;;;;37.72;30.38;;;;;;;;;;5110255;28;20692;-83
2023/04/18 08:59:39;;;;;;;35.40;28.40;;;;;;;;;;5110999;28;20395;-82
2023/04/18 09:02:08;;;;;;;38.28;29.30;;;;;;;;;;5110290;28;20205;-81
2023/04/18 09:04:36;;;;;;;34.38;28.88;;;;;;;;;;5112751;27;20661;-81
2023/04/18 09:07:04;;;;;;;34.38;28.52;;;;;;;;;;5131526;28;20197;-80
2023/04/18 09:09:42;;;;;;;34.05;28.08;;;;;;;;;;5111499;28;20284;-81
2023/04/18 09:12:13;;;;;;;36.33;27.77;;;;;;;;;;5113888;28;20748;-81
2023/04/18 09:14:41;;;;;;;34.72;26.75;;;;;;;;;;5114690;28;20217;-80
2023/04/18 09:17:09;;;;;;;32.30;26.95;;;;;;;;;;5114707;28;20229;-82
2023/04/18 09:19:37;;;;;;;30.25;26.30;;;;;;;;;;5114512;27;20280;-82
2023/04/18 09:22:04;;;;;;;33.92;28.08;;;;;;;;;;5112310;27;20681;-78
2023/04/18 09:24:33;;;;;;;34.38;28.75;;;;;;;;;;5114806;28;20697;-81
2023/04/18 09:27:02;;;;;;;31.83;27.10;;;;;;;;;;5114692;28;20232;-82
2023/04/18 09:29:45;;;;;;;34.95;28.58;;;;;;;;;;5109502;28;20198;-82
2023/04/18 09:32:19;;;;;;;35.63;28.98;;;;;;;;;;5111832;28;20274;-82
2023/04/18 09:34:47;;;;;;;34.78;28.77;;;;;;;;;;5106270;28;20739;-79
2023/04/18 09:37:14;;;;;;;34.15;27.88;;;;;;;;;;5111939;28;20209;-80
2023/04/18 09:39:42;;;;;;;33.42;28.38;;;;;;;;;;5114903;28;20202;-81
2023/04/18 09:42:11;;;;;;;35.20;28.40;;;;;;;;;;5110617;28;20309;-81
2023/04/18 09:44:38;;;;;;;32.00;26.85;;;;;;;;;;5114306;28;20221;-81
2023/04/18 09:47:07;;;;;;;31.42;27.33;;;;;;;;;;5114704;28;20198;-81
2023/04/18 09:49:34;;;;;;;31.13;26.33;;;;;;;;;;5114118;28;20189;-80
2023/04/18 09:52:03;;;;;;;31.45;25.45;;;;;;;;;;5108122;27;20284;-80
2023/04/18 09:54:31;;;;;;;31.48;26.45;;;;;;;;;;5111894;27;20722;-81
2023/04/18 09:56:59;;;;;;;31.88;26.92;;;;;;;;;;5121924;27;20225;-81
2023/04/18 09:59:34;;;;;;;32.17;27.08;;;;;;;;;;5120352;27;20194;-81
2023/04/18 10:02:02;;;;;;;30.70;25.60;;;;;;;;;;5113886;28;20219;-80
2023/04/18 10:04:31;;;;;;;29.33;23.58;;;;;;;;;;5110822;28;20286;-81
2023/04/18 10:06:58;;;;;;;29.17;24.20;;;;;;;;;;5112432;28;20657;-81
2023/04/18 10:09:26;;;;;;;30.83;25.77;;;;;;;;;;5115182;27;20285;-81
2023/04/18 10:11:53;;;;;;;29.58;25.25;;;;;;;;;;5113817;27;20233;-81
2023/04/18 10:14:20;;;;;;;31.30;25.15;;;;;;;;;;5112914;28;20304;-81
2023/04/18 10:16:49;;;;;;;31.58;24.50;;;;;;;;;;5113876;28;20810;-81
2023/04/18 10:19:23;;;;;;;29.38;23.38;;;;;;;;;;5113606;28;20744;-80
2023/04/18 10:21:54;;;;;;;26.83;23.92;;;;;;;;;;5112969;28;20209;-81
2023/04/18 10:24:40;;;;;;;32.90;24.55;;;;;;;;;;5113761;28;20229;-78
2023/04/18 10:27:07;;;;;;;31.60;26.00;;;;;;;;;;5113831;28;20193;-80
2023/04/18 10:29:47;;;;;;;30.02;25.55;;;;;;;;;;5121724;27;20733;-81
2023/04/18 10:32:15;;;;;;;32.08;26.63;;;;;;;;;;5131091;27;20202;-81
2023/04/18 10:34:42;;;;;;;27.50;24.20;;;;;;;;;;5113441;28;20229;-81
2023/04/18 10:37:11;;;;;;;28.70;24.05;;;;;;;;;;5111626;28;20289;-81
2023/04/18 10:39:48;;;;;;;29.27;25.55;;;;;;;;;;5113567;28;20193;-80
2023/04/18 10:42:15;;;;;;;28.75;24.77;;;;;;;;;;5112512;27;20748;-81
2023/04/18 10:44:42;;;;;;;29.10;24.65;;;;;;;;;;5112686;28;20253;-81
2023/04/18 10:47:27;;;;;;;26.95;24.00;;;;;;;;;;5113037;27;20239;-80
2023/04/18 10:50:00;;;;;;;33.05;25.30;;;;;;;;;;5106918;28;20657;-80
2023/04/18 10:52:30;;;;;;;28.10;25.02;;;;;;;;;;5110366;28;20197;-80
2023/04/18 10:55:13;;;;;;;32.20;26.23;;;;;;;;;;5113021;28;20714;-81
2023/04/18 10:57:41;;;;;;;29.33;24.75;;;;;;;;;;5093865;28;20621;-81
2023/04/18 11:00:10;;;;;;;30.95;26.05;;;;;;;;;;5110851;28;20296;-81
2023/04/18 11:02:37;;;;;;;30.48;25.05;;;;;;;;;;5112623;27;20210;-80
2023/04/18 11:05:07;;;;;;;30.25;25.38;;;;;;;;;;5112235;28;20240;-80
2023/04/18 11:07:34;;;;;;;29.85;25.30;;;;;;;;;;5112890;28;20289;-80
2023/04/18 11:10:02;;;;;;;29.80;26.10;;;;;;;;;;5112034;28;20685;-80
2023/04/18 11:12:30;;;;;;;29.30;25.05;;;;;;;;;;5106282;28;20233;-81
2023/04/18 11:14:58;;;;;;;29.35;25.40;;;;;;;;;;5112660;28;20198;-81
2023/04/18 11:17:26;;;;;;;33.67;26.60;;;;;;;;;;5112809;28;20229;-82
2023/04/18 11:20:00;;;;;;;32.60;25.13;;;;;;;;;;5112490;28;20240;-80
2023/04/18 11:22:29;;;;;;;31.90;25.23;;;;;;;;;;5112804;28;20287;-81
2023/04/18 11:25:00;;;;;;;27.02;23.17;;;;;;;;;;5111661;28;20234;-82
2023/04/18 11:27:27;;;;;;;29.13;23.92;;;;;;;;;;5112456;28;20277;-81
2023/04/18 11:29:55;;;;;;;31.30;25.90;;;;;;;;;;5112716;28;20262;-83
2023/04/18 11:32:23;;;;;;;27.55;24.52;;;;;;;;;;5112781;28;20218;-82
2023/04/18 11:34:52;;;;;;;34.70;27.67;;;;;;;;;;5113285;28;20224;-82
2023/04/18 11:37:19;;;;;;;29.10;25.95;;;;;;;;;;5112019;28;20194;-82
2023/04/18 11:39:48;;;;;;;32.03;26.08;;;;;;;;;;5112652;28;20272;-80
2023/04/18 11:42:15;;;;;;;29.10;25.80;;;;;;;;;;5110535;28;20265;-80
2023/04/18 11:44:46;;;;;;;27.35;23.88;;;;;;;;;;5111252;28;20237;-80
2023/04/18 11:47:23;;;;;;;27.90;24.42;;;;;;;;;;5110948;28;20228;-81
2023/04/18 11:49:56;;;;;;;30.17;25.17;;;;;;;;;;5112073;28;20200;-80
2023/04/18 11:52:23;;;;;;;30.20;24.23;;;;;;;;;;5111277;28;20753;-79
2023/04/18 11:54:52;;;;;;;29.10;24.42;;;;;;;;;;5109936;28;20292;-80
2023/04/18 11:57:20;;;;;;;30.50;26.02;;;;;;;;;;5112029;28;20226;-81
2023/04/18 11:59:55;;;;;;;31.02;27.17;;;;;;;;;;5112248;28;20239;-80
2023/04/18 12:02:22;;;;;;;30.23;26.38;;;;;;;;;;5111161;28;20620;-80
2023/04/18 12:04:51;;;;;;;31.45;26.17;;;;;;;;;;5111164;28;20260;-80
2023/04/18 12:07:30;;;;;;;32.22;26.83;;;;;;;;;;5108503;28;20197;-80
2023/04/18 12:09:59;;;;;;;31.77;27.15;;;;;;;;;;5109663;28;20552;-80
2023/04/18 12:12:26;;;;;;;29.75;25.20;;;;;;;;;;5103834;28;20288;-81
2023/04/18 12:14:58;;;;;;;31.17;26.58;;;;;;;;;;5110971;28;20245;-80
2023/04/18 12:17:26;;;;;;;29.05;25.77;;;;;;;;;;5110614;28;20293;-82
2023/04/18 12:19:54;;;;;;;30.17;26.65;;;;;;;;;;5110203;28;20221;-81
2023/04/18 12:22:24;;;;;;;30.95;25.85;;;;;;;;;;5105775;28;20558;-81
2023/04/18 12:25:07;;;;;;;29.70;25.05;;;;;;;;;;5106568;28;20698;-82
2023/04/18 12:27:48;;;;;;;27.25;24.23;;;;;;;;;;5107992;28;20198;-81
2023/04/18 12:30:18;;;;;;;26.35;23.25;;;;;;;;;;5109656;28;20885;-81
2023/04/18 12:32:46;;;;;;;27.25;24.13;;;;;;;;;;5110731;28;20185;-81
2023/04/18 12:35:13;;;;;;;26.98;23.98;;;;;;;;;;5110515;28;20225;-80
2023/04/18 12:37:40;;;;;;;27.15;22.98;;;;;;;;;;5110896;28;20229;-80
2023/04/18 12:40:09;;;;;;;27.77;24.52;;;;;;;;;;5110772;28;20193;-81
2023/04/18 12:42:37;;;;;;;29.52;25.15;;;;;;;;;;5112053;28;20231;-81
2023/04/18 12:45:07;;;;;;;27.25;24.35;;;;;;;;;;5114499;28;20906;-81
2023/04/18 12:47:35;;;;;;;26.35;23.13;;;;;;;;;;5115299;27;20249;-81
2023/04/18 12:50:02;;;;;;;26.17;22.85;;;;;;;;;;5111327;27;20216;-82
2023/04/18 12:52:30;;;;;;;27.90;24.33;;;;;;;;;;5115449;28;20189;-81
2023/04/18 12:54:57;;;;;;;27.50;24.55;;;;;;;;;;5114975;28;20229;-81
2023/04/18 12:57:25;;;;;;;30.75;23.85;;;;;;;;;;5110730;28;20239;-82
2023/04/18 12:59:52;;;;;;;29.13;24.15;;;;;;;;;;5112869;28;20198;-82
2023/04/18 13:02:21;;;;;;;29.50;24.13;;;;;;;;;;5113882;28;20280;-81
2023/04/18 13:04:48;;;;;;;28.98;23.58;;;;;;;;;;5114032;28;20235;-81
2023/04/18 13:07:16;;;;;;;27.17;23.17;;;;;;;;;;5107676;27;20254;-81
2023/04/18 13:09:45;;;;;;;25.58;22.75;;;;;;;;;;5121316;27;20660;-81
2023/04/18 13:12:12;;;;;;;26.35;22.63;;;;;;;;;;5113122;27;20224;-81
2023/04/18 13:14:39;;;;;;;26.08;23.05;;;;;;;;;;5114291;28;20236;-82
2023/04/18 13:17:07;;;;;;;26.65;22.63;;;;;;;;;;5115033;28;20533;-81
2023/04/18 13:19:35;;;;;;;25.70;22.92;;;;;;;;;;5114943;28;20281;-83
2023/04/18 13:22:03;;;;;;;27.10;22.45;;;;;;;;;;5111155;28;20205;-81
2023/04/18 13:24:30;;;;;;;27.38;21.98;;;;;;;;;;5113627;28;20217;-81
2023/04/18 13:26:57;;;;;;;27.42;22.65;;;;;;;;;;5115897;27;20281;-81
2023/04/18 13:29:24;;;;;;;26.98;20.63;;;;;;;;;;5110528;28;20193;-81
2023/04/18 13:31:52;;;;;;;22.98;20.48;;;;;;;;;;5111938;28;20221;-80
2023/04/18 13:34:19;;;;;;;27.65;21.13;;;;;;;;;;5112169;28;20278;-81
2023/04/18 13:36:47;;;;;;;23.27;20.38;;;;;;;;;;5111739;28;20190;-82
2023/04/18 13:39:15;;;;;;;24.77;20.73;;;;;;;;;;5114453;28;20542;-81
2023/04/18 13:41:42;;;;;;;22.15;19.75;;;;;;;;;;5113977;28;20218;-81
2023/04/18 13:44:09;;;;;;;26.73;21.13;;;;;;;;;;5113518;28;20221;-81
2023/04/18 13:46:38;;;;;;;25.10;20.05;;;;;;;;;;5112219;28;20300;-81
2023/04/18 13:49:05;;;;;;;24.05;20.25;;;;;;;;;;5112337;28;20738;-81
2023/04/18 13:51:32;;;;;;;22.77;19.00;;;;;;;;;;5113403;28;20206;-81
2023/04/18 13:54:01;;;;;;;24.50;19.35;;;;;;;;;;5113288;28;20296;-80
2023/04/18 13:56:28;;;;;;;23.17;18.67;;;;;;;;;;5114161;28;20229;-81
2023/04/18 13:58:56;;;;;;;23.75;19.00;;;;;;;;;;5101881;27;20209;-82
2023/04/18 14:01:23;;;;;;;22.67;18.05;;;;;;;;;;5109682;28;20288;-81
2023/04/18 14:03:50;;;;;;;23.27;19.25;;;;;;;;;;5100616;28;20297;-81
2023/04/18 14:06:17;;;;;;;23.00;18.48;;;;;;;;;;5113481;28;20240;-81
2023/04/18 14:08:45;;;;;;;25.05;19.45;;;;;;;;;;5113543;28;20280;-80
2023/04/18 14:11:13;;;;;;;22.40;19.13;;;;;;;;;;5113498;27;20321;-80
2023/04/18 14:13:40;;;;;;;22.52;19.00;;;;;;;;;;5112228;27;20198;-80
2023/04/18 14:16:08;;;;;;;22.27;19.03;;;;;;;;;;5112872;28;20197;-80
2023/04/18 14:18:35;;;;;;;23.90;18.63;;;;;;;;;;5110481;27;20213;-81
2023/04/18 14:21:02;;;;;;;25.67;19.07;;;;;;;;;;5113092;28;20243;-80